Terminal Aerodrome Forecast
Issued by NWS

Home | Current Version | Previous Version | Graphics & Text | Print | Product List | Glossary On
Versions: 1 2 3 4 5 6 7 8 9 10 11 12
294
FTUS43 KGRB 201135
TAFMTW
TAF
KMTW 201135Z 2012/2112 VRB03KT P6SM BKN100
      TEMPO 2012/2015 4SM BR SCT012
     FM201600 34007KT P6SM SCT020 BKN100
     FM201800 01011KT P6SM BKN100
     FM210100 VRB03KT P6SM SCT100=

USA.gov is the U.S. government's official web portal to all federal, state and local government web resources and services.